Time;durP1;ratioP1;P1;durP2;ratioP2;P2;SDS_P1;SDS_P2;PMS_P1;PMS_P2;Temp;Humidity;BMP_temperature;BMP_pressure;BME280_temperature;BME280_humidity;BME280_pressure;Samples;Min_cycle;Max_cycle;Signal;HPM_P1;HPM_P2
2022/08/29 00:00:16;;;;;;;6.87;2.40;;;;;;;-145.18;100.00;46654.53;5029787;28;20120;-72
2022/08/29 00:02:42;;;;;;;7.10;2.30;;;;;;;-145.18;100.00;46656.50;5037658;28;20480;-72
2022/08/29 00:05:07;;;;;;;8.23;2.67;;;;;;;-145.18;100.00;46658.44;5049305;28;20075;-71
2022/08/29 00:07:33;;;;;;;11.37;3.40;;;;;;;-145.18;100.00;46656.50;5049329;28;20130;-71
2022/08/29 00:09:58;;;;;;;5.53;2.60;;;;;;;-145.18;100.00;46656.50;5049819;28;20029;-72
2022/08/29 00:12:24;;;;;;;7.23;2.67;;;;;;;-145.18;100.00;46656.50;5049414;28;20108;-72
2022/08/29 00:14:49;;;;;;;5.53;2.50;;;;;;;-145.18;100.00;46656.50;5049587;28;20033;-72
2022/08/29 00:17:15;;;;;;;5.70;2.97;;;;;;;-145.18;100.00;46656.50;5048984;28;20044;-72
2022/08/29 00:19:40;;;;;;;10.07;2.83;;;;;;;-145.18;100.00;46654.53;5015115;28;20534;-72
2022/08/29 00:22:05;;;;;;;8.03;2.27;;;;;;;-145.18;100.00;46658.44;5049233;28;20398;-73
2022/08/29 00:24:31;;;;;;;8.43;1.90;;;;;;;-145.18;100.00;46664.31;5052855;28;20049;-72
2022/08/29 00:26:59;;;;;;;5.73;2.40;;;;;;;-145.18;100.00;46656.50;5053193;28;20037;-72
2022/08/29 00:29:25;;;;;;;6.60;2.17;;;;;;;-145.18;100.00;46656.50;5053590;28;20025;-72
2022/08/29 00:31:50;;;;;;;9.77;2.23;;;;;;;-145.18;100.00;46656.50;5034787;28;20119;-72
2022/08/29 00:34:16;;;;;;;3.97;2.20;;;;;;;-145.18;100.00;46658.44;5015992;28;20065;-72
2022/08/29 00:36:41;;;;;;;4.57;1.80;;;;;;;-145.18;100.00;46656.50;5033111;28;20038;-72
2022/08/29 00:39:06;;;;;;;6.20;2.00;;;;;;;-145.18;100.00;46658.44;5033617;28;20486;-73
2022/08/29 00:41:32;;;;;;;6.43;2.03;;;;;;;-145.18;100.00;46652.59;5032805;28;20030;-72
2022/08/29 00:43:58;;;;;;;7.40;2.47;;;;;;;-145.18;100.00;46658.44;5032734;28;20037;-72
2022/08/29 00:46:42;;;;;;;3.93;2.30;;;;;;;-145.18;100.00;46646.72;5032671;28;20559;-72
2022/08/29 00:49:31;;;;;;;9.17;2.37;;;;;;;-145.18;100.00;46648.69;5032644;28;20037;-72
2022/08/29 00:52:02;;;;;;;7.33;2.50;;;;;;;-145.18;100.00;46650.63;5014843;28;20049;-72
2022/08/29 00:54:28;;;;;;;7.73;2.40;;;;;;;-145.18;100.00;46646.72;5032515;28;20034;-72
2022/08/29 00:56:55;;;;;;;9.33;2.37;;;;;;;-145.18;100.00;46646.72;5032236;28;20029;-72
2022/08/29 00:59:26;;;;;;;5.20;2.33;;;;;;;-145.18;100.00;46652.59;5033017;28;20048;-72
2022/08/29 01:01:51;;;;;;;7.90;2.83;;;;;;;-145.18;100.00;46648.69;5032443;28;20033;-72
2022/08/29 01:04:17;;;;;;;5.80;2.50;;;;;;;-145.18;100.00;46648.69;5032182;28;20192;-72
2022/08/29 01:06:43;;;;;;;7.37;2.17;;;;;;;-145.18;100.00;46648.69;5032080;28;20110;-72
2022/08/29 01:09:09;;;;;;;3.13;2.10;;;;;;;-145.18;100.00;46644.78;5032370;28;20053;-71
2022/08/29 01:14:21;;;;;;;12.30;2.67;;;;;;;-145.18;100.00;46650.63;5032700;28;20045;-72
2022/08/29 01:16:48;;;;;;;5.83;2.23;;;;;;;-145.18;100.00;46650.63;5013817;28;20385;-72
2022/08/29 01:19:29;;;;;;;6.10;2.50;;;;;;;-145.18;100.00;46644.78;5032364;28;20033;-71
2022/08/29 01:22:03;;;;;;;9.17;2.63;;;;;;;-145.18;100.00;46640.88;5031656;28;20117;-72
2022/08/29 01:24:35;;;;;;;5.10;2.47;;;;;;;-145.18;100.00;46648.69;5032410;28;20037;-72
2022/08/29 01:27:01;;;;;;;5.50;2.13;;;;;;;-145.18;100.00;46642.81;5031383;28;20104;-72
2022/08/29 01:29:27;;;;;;;9.77;2.97;;;;;;;-145.18;100.00;46644.78;5032342;28;20722;-72
2022/08/29 01:31:54;;;;;;;5.57;2.33;;;;;;;-145.18;100.00;46642.81;5031470;28;20037;-72
2022/08/29 01:34:20;;;;;;;6.40;2.50;;;;;;;-145.18;100.00;46644.78;5032062;28;20386;-72
2022/08/29 01:36:49;;;;;;;7.00;2.60;;;;;;;-145.18;100.00;46677.97;5013903;28;20031;-72
2022/08/29 01:39:16;;;;;;;5.53;2.20;;;;;;;-145.18;100.00;46679.94;5031777;28;20080;-72
2022/08/29 01:41:42;;;;;;;5.40;2.20;;;;;;;-145.18;100.00;46640.88;5031410;28;20116;-72
2022/08/29 01:44:13;;;;;;;5.93;2.53;;;;;;;-145.18;100.00;46679.94;5031590;28;20045;-72
2022/08/29 01:46:39;;;;;;;10.30;2.53;;;;;;;-145.18;100.00;46660.41;5031321;28;20052;-72
2022/08/29 01:49:07;;;;;;;7.13;2.50;;;;;;;-145.18;100.00;46660.41;5031259;28;20033;-72
2022/08/29 01:51:34;;;;;;;6.03;2.60;;;;;;;-145.18;100.00;46679.94;5031130;28;20034;-72
2022/08/29 01:54:00;;;;;;;6.63;2.67;;;;;;;-145.18;100.00;46642.81;5031359;28;20037;-72
2022/08/29 01:56:28;;;;;;;5.97;2.70;;;;;;;-145.18;100.00;46660.41;5031262;28;20037;-71
2022/08/29 01:58:55;;;;;;;5.93;2.80;;;;;;;-145.18;100.00;46660.41;5030975;28;20052;-71
2022/08/29 02:03:49;;;;;;;7.63;3.27;;;;;;;-145.18;100.00;46677.97;5012920;23;20100;-71
2022/08/29 02:06:15;;;;;;;6.33;3.10;;;;;;;-145.18;100.00;46660.41;5019870;28;20042;-71
2022/08/29 02:08:42;;;;;;;7.63;3.07;;;;;;;-145.18;100.00;46677.97;5025029;28;20116;-71
2022/08/29 02:11:09;;;;;;;13.43;3.37;;;;;;;-145.18;100.00;46660.41;5032414;28;20485;-71
2022/08/29 02:13:44;;;;;;;10.67;3.20;;;;;;;-145.18;100.00;46660.41;5050338;28;20512;-71
2022/08/29 02:16:10;;;;;;;6.75;4.07;;;;;;;-145.18;100.00;46660.41;5033397;28;20095;-71
2022/08/29 02:18:36;;;;;;;6.47;3.33;;;;;;;-145.18;100.00;46660.41;5030384;28;20043;-71
2022/08/29 02:21:02;;;;;;;12.43;3.60;;;;;;;-145.18;100.00;46660.41;5030763;28;20394;-70
2022/08/29 02:23:28;;;;;;;8.87;4.10;;;;;;;-145.18;100.00;46660.41;5030105;28;20025;-71
2022/08/29 02:25:53;;;;;;;5.80;3.70;;;;;;;-145.18;100.00;46660.41;5030577;28;20040;-70
2022/08/29 02:28:18;;;;;;;8.97;3.70;;;;;;;-145.18;100.00;46660.41;5030273;28;20041;-71
2022/08/29 02:30:48;;;;;;;8.23;3.87;;;;;;;-145.18;100.00;46660.41;5030433;28;20041;-71
2022/08/29 02:33:16;;;;;;;8.03;3.67;;;;;;;-145.18;100.00;46660.41;5030019;28;20033;-70
2022/08/29 02:35:42;;;;;;;8.93;3.70;;;;;;;-145.18;100.00;46660.41;5030361;28;20017;-70
2022/08/29 02:38:08;;;;;;;7.97;3.93;;;;;;;-145.18;100.00;46660.41;5030292;28;20032;-70
2022/08/29 02:40:34;;;;;;;10.60;4.47;;;;;;;-145.18;100.00;46660.41;5030374;28;20033;-70
2022/08/29 02:43:00;;;;;;;8.67;3.87;;;;;;;-145.18;100.00;46660.41;5029812;28;20096;-70
2022/08/29 02:45:26;;;;;;;8.90;3.77;;;;;;;-145.18;100.00;46660.41;5029695;28;20041;-70
2022/08/29 02:47:51;;;;;;;4.17;2.37;;;;;;;-145.18;100.00;46660.41;5030027;28;20037;-70
2022/08/29 02:50:17;;;;;;;8.50;2.90;;;;;;;-145.18;100.00;46660.41;5044394;28;20028;-70
2022/08/29 02:52:43;;;;;;;5.67;2.87;;;;;;;-145.18;100.00;46660.41;5049463;28;20033;-71
2022/08/29 02:55:13;;;;;;;6.00;2.57;;;;;;;-145.18;100.00;46660.41;5050220;28;20029;-71
2022/08/29 02:57:38;;;;;;;4.97;3.23;;;;;;;-145.18;100.00;46660.41;5049896;28;20469;-70
2022/08/29 03:00:10;;;;;;;4.20;2.60;;;;;;;-145.18;100.00;46660.41;5020086;28;20040;-70
2022/08/29 03:02:36;;;;;;;6.13;2.90;;;;;;;-145.18;100.00;46660.41;5029408;28;20144;-70
2022/08/29 03:05:02;;;;;;;5.07;2.40;;;;;;;-145.18;100.00;46660.41;5048185;28;20460;-70
2022/08/29 03:07:28;;;;;;;6.33;2.57;;;;;;;-145.18;100.00;46660.41;5049859;28;20021;-70
2022/08/29 03:09:53;;;;;;;7.03;3.07;;;;;;;-145.18;100.00;46660.41;5032061;28;20025;-70
2022/08/29 03:12:19;;;;;;;7.80;3.63;;;;;;;-145.18;100.00;46640.88;5049473;28;20072;-70
2022/08/29 03:14:44;;;;;;;6.93;2.70;;;;;;;-145.18;100.00;46638.91;5029761;28;20112;-70
2022/08/29 03:17:09;;;;;;;5.93;2.60;;;;;;;-145.18;100.00;46660.41;5042565;28;20025;-69
2022/08/29 03:19:35;;;;;;;4.97;2.50;;;;;;;-145.18;100.00;46660.41;5050173;28;20536;-69
2022/08/29 03:22:00;;;;;;;4.13;1.93;;;;;;;-145.18;100.00;46660.41;5049232;28;20116;-69
2022/08/29 03:24:26;;;;;;;4.93;2.97;;;;;;;-145.18;100.00;46660.41;5034224;28;20045;-69
2022/08/29 03:26:51;;;;;;;4.50;2.30;;;;;;;-145.18;100.00;46660.41;5012068;28;20037;-70
2022/08/29 03:29:17;;;;;;;4.23;2.43;;;;;;;-145.18;100.00;46638.91;5029831;28;20055;-69
2022/08/29 03:31:42;;;;;;;4.93;3.20;;;;;;;-145.18;100.00;46636.94;5029839;28;20034;-70
2022/08/29 03:34:08;;;;;;;6.97;2.60;;;;;;;-145.18;100.00;46660.41;5029687;28;20049;-70
2022/08/29 03:36:33;;;;;;;5.73;3.30;;;;;;;-145.18;100.00;46638.91;5030072;28;20069;-70
2022/08/29 03:38:59;;;;;;;7.77;3.67;;;;;;;-145.18;100.00;46676.03;5029504;28;20033;-70
2022/08/29 03:41:27;;;;;;;4.67;3.10;;;;;;;-145.18;100.00;46660.41;5030161;28;20072;-70
2022/08/29 03:43:57;;;;;;;4.17;3.00;;;;;;;-145.18;100.00;46676.03;5029298;28;20037;-69
2022/08/29 03:46:23;;;;;;;10.80;2.97;;;;;;;-145.18;100.00;46638.91;5029511;28;20095;-70
2022/08/29 03:48:49;;;;;;;6.90;3.47;;;;;;;-145.18;100.00;46660.41;5029413;28;20033;-70
2022/08/29 03:51:16;;;;;;;10.77;3.57;;;;;;;-145.18;100.00;46638.91;5029723;28;20037;-70
2022/08/29 03:53:42;;;;;;;4.80;2.50;;;;;;;-145.18;100.00;46660.41;5029372;28;20045;-69
2022/08/29 03:56:08;;;;;;;6.63;3.00;;;;;;;-145.18;100.00;46638.91;5029874;28;20441;-70
2022/08/29 03:58:33;;;;;;;8.20;2.93;;;;;;;-145.18;100.00;46640.88;5031126;28;20026;-70
2022/08/29 04:01:00;;;;;;;7.77;3.63;;;;;;;-145.18;100.00;46638.91;5032773;28;20510;-69
2022/08/29 04:03:25;;;;;;;7.27;2.90;;;;;;;-145.18;100.00;46636.94;5026734;28;20054;-69
2022/08/29 04:05:51;;;;;;;6.73;2.57;;;;;;;-145.18;100.00;46640.88;5026646;28;20035;-70
2022/08/29 04:08:17;;;;;;;6.00;3.00;;;;;;;-145.18;100.00;46640.88;5032728;28;20495;-70
2022/08/29 04:10:43;;;;;;;4.97;2.80;;;;;;;-145.18;100.00;46677.97;5033083;28;20034;-70
2022/08/29 04:13:08;;;;;;;6.57;2.93;;;;;;;-145.18;100.00;46660.41;5023916;28;20406;-69
2022/08/29 04:15:36;;;;;;;7.83;3.10;;;;;;;-145.18;100.00;46640.88;5021537;28;20025;-70
2022/08/29 04:18:05;;;;;;;6.60;3.07;;;;;;;-145.18;100.00;46640.88;5026922;28;20033;-70
2022/08/29 04:20:33;;;;;;;7.70;3.27;;;;;;;-145.18;100.00;46644.78;5032935;28;20078;-70
2022/08/29 04:22:59;;;;;;;7.50;3.13;;;;;;;-145.18;100.00;46638.91;5032219;28;20116;-70
2022/08/29 04:25:26;;;;;;;8.27;3.63;;;;;;;-145.18;100.00;46660.41;5032773;28;20457;-70
2022/08/29 04:27:53;;;;;;;10.60;3.67;;;;;;;-145.18;100.00;46660.41;5032483;28;20045;-70
2022/08/29 04:30:21;;;;;;;7.60;3.43;;;;;;;-145.18;100.00;46660.41;5032932;28;20516;-70
2022/08/29 04:32:46;;;;;;;5.57;3.03;;;;;;;-145.18;100.00;46660.41;5032282;28;20029;-69
2022/08/29 04:35:14;;;;;;;7.47;3.47;;;;;;;-145.18;100.00;46660.41;5021119;28;20037;-70
2022/08/29 04:37:40;;;;;;;6.30;3.23;;;;;;;-145.18;100.00;46660.41;5012166;28;20053;-70
2022/08/29 04:40:12;;;;;;;6.70;3.50;;;;;;;-145.18;100.00;46660.41;5037311;28;20029;-70
2022/08/29 04:42:37;;;;;;;6.80;3.50;;;;;;;-145.18;100.00;46660.41;5032338;28;20067;-70
2022/08/29 04:45:08;;;;;;;6.80;3.37;;;;;;;-145.18;100.00;46660.41;5032146;28;20073;-70
2022/08/29 04:47:35;;;;;;;10.20;3.17;;;;;;;-145.18;100.00;46660.41;5031653;28;20112;-70
2022/08/29 04:50:00;;;;;;;7.60;2.83;;;;;;;-145.18;100.00;46660.41;5032274;28;20033;-70
2022/08/29 04:52:27;;;;;;;4.43;2.63;;;;;;;-145.18;100.00;46660.41;5032013;28;20696;-69
2022/08/29 04:54:53;;;;;;;9.37;3.77;;;;;;;-145.18;100.00;46660.41;5031719;28;20033;-70
2022/08/29 04:57:19;;;;;;;7.17;3.50;;;;;;;-145.18;100.00;46636.94;5031732;28;20029;-69
2022/08/29 04:59:44;;;;;;;7.87;3.73;;;;;;;-145.18;100.00;46660.41;5032148;28;20111;-69
2022/08/29 05:02:10;;;;;;;5.53;3.47;;;;;;;-145.18;100.00;46660.41;5032076;28;20049;-70
2022/08/29 05:04:36;;;;;;;11.43;3.43;;;;;;;-145.18;100.00;46660.41;5032244;28;20036;-69
2022/08/29 05:07:01;;;;;;;5.87;3.70;;;;;;;-145.18;100.00;46660.41;5032041;28;20038;-70
2022/08/29 05:09:26;;;;;;;8.27;3.20;;;;;;;-145.18;100.00;46676.03;5031702;28;20615;-69
2022/08/29 05:11:52;;;;;;;7.00;3.60;;;;;;;-145.18;100.00;46660.41;5031936;28;20105;-69
2022/08/29 05:14:17;;;;;;;10.30;4.23;;;;;;;-145.18;100.00;46660.41;5014021;28;20114;-69
2022/08/29 05:16:43;;;;;;;7.57;3.70;;;;;;;-145.18;100.00;46660.41;5031123;28;20033;-70
2022/08/29 05:19:08;;;;;;;7.77;3.80;;;;;;;-145.18;100.00;46660.41;5031674;28;20107;-70
2022/08/29 05:21:36;;;;;;;8.93;4.03;;;;;;;-145.18;100.00;46660.41;5032273;28;20057;-69
2022/08/29 05:24:07;;;;;;;10.03;4.00;;;;;;;-145.18;100.00;46660.41;5031193;28;20048;-70
2022/08/29 05:26:37;;;;;;;7.87;3.93;;;;;;;-145.18;100.00;46660.41;5024116;28;20274;-70
2022/08/29 05:29:06;;;;;;;9.97;4.37;;;;;;;-145.18;100.00;46660.41;5011734;28;20030;-69
2022/08/29 05:31:31;;;;;;;12.57;4.13;;;;;;;-145.18;100.00;46660.41;5012380;28;20033;-69
2022/08/29 05:33:57;;;;;;;9.27;4.10;;;;;;;-145.18;100.00;46660.41;5011349;28;20038;-69
2022/08/29 05:36:22;;;;;;;10.43;4.20;;;;;;;-145.18;100.00;46660.41;5011991;28;20061;-69
2022/08/29 05:38:47;;;;;;;15.80;4.57;;;;;;;-145.18;100.00;46660.41;5015131;28;20567;-69
2022/08/29 05:41:13;;;;;;;10.23;4.03;;;;;;;-145.18;100.00;46660.41;5034325;28;20064;-69
2022/08/29 05:43:38;;;;;;;10.50;4.17;;;;;;;-145.18;100.00;46660.41;5030286;28;20033;-72
2022/08/29 05:46:05;;;;;;;9.40;3.93;;;;;;;-145.18;100.00;46631.09;5031457;28;20037;-70
2022/08/29 05:48:32;;;;;;;12.03;3.63;;;;;;;-145.18;100.00;46660.41;5031358;28;20039;-69
2022/08/29 05:50:58;;;;;;;11.20;3.63;;;;;;;-145.18;100.00;46660.41;5031345;28;20063;-69
2022/08/29 05:53:25;;;;;;;11.10;3.83;;;;;;;-145.18;100.00;46631.09;5050201;28;20029;-71
2022/08/29 05:55:50;;;;;;;10.00;4.00;;;;;;;-145.18;100.00;46660.41;5051203;28;20145;-71
2022/08/29 05:58:17;;;;;;;10.17;3.97;;;;;;;-145.18;100.00;46660.41;5050950;28;20568;-70
2022/08/29 06:00:46;;;;;;;13.83;3.83;;;;;;;-145.18;100.00;46631.09;5033606;28;20037;-69
2022/08/29 06:03:13;;;;;;;10.43;3.63;;;;;;;-145.18;100.00;46660.41;5030648;28;20068;-71
2022/08/29 06:05:39;;;;;;;9.43;3.77;;;;;;;-145.18;100.00;46660.41;5038274;28;20460;-69
2022/08/29 06:08:06;;;;;;;6.83;3.63;;;;;;;-145.18;100.00;46633.06;5045684;28;20068;-71
2022/08/29 06:10:33;;;;;;;12.30;3.60;;;;;;;-145.18;100.00;46633.06;5042093;28;20195;-71
2022/08/29 06:12:59;;;;;;;8.30;4.17;;;;;;;-145.18;100.00;46627.19;5044660;28;20033;-71
2022/08/29 06:15:27;;;;;;;11.57;4.27;;;;;;;-145.18;100.00;46635.00;5043411;28;20477;-71
2022/08/29 06:17:53;;;;;;;8.27;3.60;;;;;;;-145.18;100.00;46627.19;5030127;28;20120;-72
2022/08/29 06:20:19;;;;;;;10.03;4.63;;;;;;;-145.18;100.00;46629.13;5029558;28;20394;-71
2022/08/29 06:22:44;;;;;;;10.33;4.10;;;;;;;-145.18;100.00;46631.09;5029321;28;20049;-71
2022/08/29 06:25:10;;;;;;;8.73;4.40;;;;;;;-145.18;100.00;46631.09;5030174;28;20533;-71
2022/08/29 06:27:35;;;;;;;10.87;4.07;;;;;;;-145.18;100.00;46629.13;5030117;28;20032;-71
2022/08/29 06:30:00;;;;;;;11.80;4.33;;;;;;;-145.18;100.00;46631.09;5030328;28;20065;-71
2022/08/29 06:32:26;;;;;;;10.07;4.37;;;;;;;-145.18;100.00;46631.09;5030630;28;20041;-71
2022/08/29 06:34:51;;;;;;;8.87;3.93;;;;;;;-145.18;100.00;46631.09;5030377;28;20034;-71
2022/08/29 06:37:16;;;;;;;9.90;4.13;;;;;;;-145.18;100.00;46633.06;5013156;28;20477;-71
2022/08/29 06:39:42;;;;;;;9.83;4.33;;;;;;;-145.18;100.00;46631.09;5030218;28;20092;-71
2022/08/29 06:42:08;;;;;;;10.30;3.67;;;;;;;-145.18;100.00;46635.00;5012758;28;20083;-71
2022/08/29 06:44:33;;;;;;;8.03;3.63;;;;;;;-145.18;100.00;46638.91;5030314;28;20156;-72
2022/08/29 06:46:59;;;;;;;10.73;3.90;;;;;;;-145.18;100.00;46644.78;5030609;28;20041;-71
2022/08/29 06:49:26;;;;;;;10.97;4.07;;;;;;;-145.18;100.00;46652.59;5030155;28;20455;-71
2022/08/29 06:51:52;;;;;;;15.37;4.40;;;;;;;-145.18;100.00;46658.44;5030546;28;20034;-71
2022/08/29 06:54:23;;;;;;;14.20;3.73;;;;;;;-145.18;100.00;46656.50;5030167;28;20132;-72
2022/08/29 06:56:49;;;;;;;9.47;4.40;;;;;;;-145.18;100.00;46662.34;5030112;28;20040;-72
2022/08/29 06:59:16;;;;;;;8.70;3.70;;;;;;;-145.18;100.00;46662.34;5029955;28;20037;-72
2022/08/29 07:01:43;;;;;;;8.73;3.60;;;;;;;-145.18;100.00;46656.50;5030325;28;20029;-71
2022/08/29 07:04:10;;;;;;;8.77;3.90;;;;;;;-145.18;100.00;46654.53;5011857;28;20191;-72
2022/08/29 07:06:36;;;;;;;13.07;4.23;;;;;;;-145.18;100.00;46652.59;5030722;28;20044;-72
2022/08/29 07:09:03;;;;;;;14.87;3.90;;;;;;;-145.18;100.00;46644.78;5029911;28;20136;-73
2022/08/29 07:11:29;;;;;;;7.33;3.87;;;;;;;-145.18;100.00;46576.41;5030466;28;20037;-72
2022/08/29 07:13:57;;;;;;;9.77;3.30;;;;;;;-145.18;100.00;46531.47;5029581;28;20033;-72
2022/08/29 07:16:23;;;;;;;8.70;3.53;;;;;;;-145.18;100.00;46533.44;5030242;28;20033;-72
2022/08/29 07:18:49;;;;;;;13.47;3.80;;;;;;;-145.18;100.00;46525.63;5029523;28;20048;-72
2022/08/29 07:21:17;;;;;;;12.50;4.47;;;;;;;-145.18;100.00;46527.56;5030313;28;20175;-72
2022/08/29 07:23:42;;;;;;;11.03;4.30;;;;;;;-145.18;100.00;46523.66;5029892;28;20115;-72
2022/08/29 07:26:17;;;;;;;13.60;4.77;;;;;;;-145.18;100.00;46527.56;5030239;28;20079;-72
2022/08/29 07:28:44;;;;;;;12.97;4.87;;;;;;;-145.18;100.00;46543.19;5029991;28;20173;-72
2022/08/29 07:31:10;;;;;;;14.37;5.13;;;;;;;-145.18;100.00;46539.28;5042611;28;20029;-72
2022/08/29 07:33:35;;;;;;;10.77;3.97;;;;;;;-145.18;100.00;46543.19;5040816;28;20542;-71
2022/08/29 07:36:02;;;;;;;11.63;5.00;;;;;;;-145.18;100.00;46535.38;5037821;28;20108;-72
2022/08/29 07:38:29;;;;;;;9.33;4.30;;;;;;;-145.18;100.00;46549.06;5042026;28;20064;-72
2022/08/29 07:41:09;;;;;;;9.93;4.13;;;;;;;-145.18;100.00;46545.16;5040636;28;20846;-72
2022/08/29 07:43:36;;;;;;;15.57;5.20;;;;;;;-145.18;100.00;46545.16;5041975;28;20044;-72
2022/08/29 07:46:09;;;;;;;9.60;4.77;;;;;;;-145.18;100.00;46552.97;5019030;28;20120;-72
2022/08/29 07:48:36;;;;;;;11.17;4.87;;;;;;;-145.18;100.00;46564.69;5053778;28;20493;-72
2022/08/29 07:51:06;;;;;;;12.03;4.17;;;;;;;-145.18;100.00;46570.53;5053112;28;20113;-72
2022/08/29 07:53:31;;;;;;;15.47;4.33;;;;;;;-145.18;100.00;46576.41;5053730;28;20112;-72
2022/08/29 07:55:56;;;;;;;12.77;5.00;;;;;;;-145.18;100.00;46593.97;5053431;28;20116;-72
2022/08/29 07:58:23;;;;;;;12.07;5.03;;;;;;;-145.18;100.00;46576.41;5053434;28;20045;-72
2022/08/29 08:00:48;;;;;;;12.33;4.70;;;;;;;-145.18;100.00;46613.50;5053810;28;20039;-73
2022/08/29 08:03:14;;;;;;;15.33;5.20;;;;;;;-145.18;100.00;46595.94;5052839;28;20505;-72
2022/08/29 08:05:40;;;;;;;11.77;3.97;;;;;;;-145.18;100.00;46613.50;5039115;28;20037;-72
2022/08/29 08:08:08;;;;;;;9.73;4.53;;;;;;;-145.18;100.00;46621.31;5018242;28;20069;-72
2022/08/29 08:10:34;;;;;;;11.13;4.97;;;;;;;-145.18;100.00;46703.38;5027808;28;20033;-72
2022/08/29 08:12:59;;;;;;;12.03;3.90;;;;;;;-145.18;100.00;47129.22;5026854;28;20044;-72
2022/08/29 08:15:26;;;;;;;9.63;4.40;;;;;;;-145.18;100.00;47072.56;5027170;28;20033;-72
2022/08/29 08:17:52;;;;;;;9.70;4.23;;;;;;;-145.18;100.00;47135.09;5033090;28;20397;-72
2022/08/29 08:20:17;;;;;;;13.57;4.77;;;;;;;-145.18;100.00;47242.53;5033500;28;20068;-72
2022/08/29 08:22:43;;;;;;;9.30;4.70;;;;;;;-145.18;100.00;47271.84;5033314;28;20029;-72
2022/08/29 08:25:08;;;;;;;9.80;3.80;;;;;;;-145.18;100.00;47256.22;5033090;28;20072;-73
2022/08/29 08:27:34;;;;;;;9.50;4.63;;;;;;;-145.18;100.00;47264.03;5015179;28;20042;-72
2022/08/29 08:29:59;;;;;;;11.30;4.30;;;;;;;-145.18;100.00;47221.03;5033473;28;20036;-72
2022/08/29 08:32:24;;;;;;;7.03;4.00;;;;;;;-145.18;100.00;47156.56;5038791;28;20029;-73
2022/08/29 08:34:50;;;;;;;11.60;3.97;;;;;;;-145.18;100.00;47142.91;5046026;28;20032;-73
2022/08/29 08:37:16;;;;;;;8.80;3.53;;;;;;;-145.18;100.00;47154.63;5052872;28;20025;-72
2022/08/29 08:39:42;;;;;;;10.37;3.70;;;;;;;-145.18;100.00;47156.56;5038574;28;20037;-73
2022/08/29 08:42:22;;;;;;;10.83;4.20;;;;;;;-145.18;100.00;47160.47;5032880;28;20037;-72
2022/08/29 08:45:11;;;;;;;10.60;4.13;;;;;;;-145.18;100.00;47180.03;5031218;28;20039;-73
2022/08/29 08:47:50;;;;;;;9.03;3.80;;;;;;;-145.18;100.00;47185.88;5051519;28;20812;-72
2022/08/29 08:50:19;;;;;;;8.70;3.20;;;;;;;-145.18;100.00;47180.03;5052470;28;20116;-73
2022/08/29 08:53:08;;;;;;;8.97;2.67;;;;;;;-145.18;100.00;47172.19;5052432;28;20501;-72
2022/08/29 08:55:48;;;;;;;8.67;2.83;;;;;;;-145.18;100.00;47174.16;5052427;28;20481;-72
2022/08/29 08:58:16;;;;;;;17.13;3.43;;;;;;;-145.18;100.00;47178.06;5052236;28;20033;-73
2022/08/29 09:00:45;;;;;;;7.83;3.03;;;;;;;-145.18;100.00;47187.84;5052552;28;20033;-73
2022/08/29 09:03:29;;;;;;;7.83;2.97;;;;;;;-145.18;100.00;47181.97;5052193;28;20052;-73
2022/08/29 09:06:11;;;;;;;7.53;2.40;;;;;;;-145.18;100.00;47178.06;5045102;28;20041;-71
2022/08/29 09:08:46;;;;;;;6.50;2.80;;;;;;;-145.18;100.00;47150.72;5051766;28;20037;-71
2022/08/29 09:11:25;;;;;;;9.33;3.03;;;;;;;-145.18;100.00;47148.75;5034685;28;20033;-71
2022/08/29 09:13:51;;;;;;;6.80;2.50;;;;;;;-145.18;100.00;47158.53;5031806;28;20022;-71
2022/08/29 09:16:45;;;;;;;11.47;3.53;;;;;;;-145.18;100.00;47135.09;5031912;28;20041;-71
2022/08/29 09:19:13;;;;;;;8.47;2.77;;;;;;;-145.18;100.00;47125.31;4999945;28;20022;-71
2022/08/29 09:21:46;;;;;;;11.97;3.17;;;;;;;-145.18;100.00;47135.09;5012209;28;20042;-71
2022/08/29 09:24:19;;;;;;;6.33;2.60;;;;;;;-145.18;100.00;47111.66;5011917;28;20063;-71
2022/08/29 09:26:44;;;;;;;6.83;3.30;;;;;;;-145.18;100.00;47094.06;5012110;28;20041;-71
2022/08/29 09:29:12;;;;;;;11.20;2.80;;;;;;;-145.18;100.00;47101.88;5013217;28;20029;-70
2022/08/29 09:31:38;;;;;;;7.57;2.33;;;;;;;-145.18;100.00;47094.06;5040925;28;20151;-71
2022/08/29 09:34:08;;;;;;;6.63;2.87;;;;;;;-145.18;100.00;47076.47;5037640;28;20564;-71
2022/08/29 09:36:48;;;;;;;8.67;2.53;;;;;;;-145.18;100.00;47070.63;5051853;28;20748;-71
2022/08/29 09:39:22;;;;;;;9.10;3.07;;;;;;;-145.18;100.00;47072.56;5032349;28;20071;-71
2022/08/29 09:42:10;;;;;;;10.07;2.87;;;;;;;-145.18;100.00;47058.91;5032055;28;20056;-71
2022/08/29 09:44:37;;;;;;;10.13;3.20;;;;;;;-145.18;100.00;47056.94;5021556;28;20045;-71
2022/08/29 09:47:22;;;;;;;7.20;2.87;;;;;;;-145.18;100.00;47062.81;5042523;28;20485;-71
2022/08/29 09:50:16;;;;;;;7.03;2.85;;;;;;;-145.18;100.00;47058.91;5051350;28;20044;-71
2022/08/29 09:53:03;;;;;;;9.97;3.10;;;;;;;-145.18;100.00;47047.19;5047652;28;20489;-71
2022/08/29 09:55:38;;;;;;;10.07;2.90;;;;;;;-145.18;100.00;47062.81;5034951;28;20036;-72
2022/08/29 09:58:25;;;;;;;5.03;2.78;;;;;;;-145.18;100.00;47055.00;5031053;28;20461;-71
2022/08/29 10:01:19;;;;;;;11.43;4.00;;;;;;;-145.18;100.00;47029.59;5030932;28;20504;-71
2022/08/29 10:03:57;;;;;;;7.10;3.33;;;;;;;-145.18;100.00;47047.19;5030710;28;20079;-71
2022/08/29 10:06:26;;;;;;;5.90;3.00;;;;;;;-145.18;100.00;47066.72;5031274;28;20450;-71
2022/08/29 10:09:24;;;;;;;5.90;3.40;;;;;;;-145.18;100.00;47082.34;5030647;28;20026;-71
2022/08/29 10:11:55;;;;;;;8.43;3.13;;;;;;;-145.18;100.00;47092.09;5029963;28;20045;-72
2022/08/29 10:14:36;;;;;;;6.10;2.80;;;;;;;-145.18;100.00;47090.16;5030698;28;20037;-71
2022/08/29 10:19:54;;;;;;;8.67;3.00;;;;;;;-145.18;100.00;47092.09;5030706;28;20149;-72
2022/08/29 10:22:19;;;;;;;6.57;2.50;;;;;;;-145.18;100.00;47096.00;5031084;28;20268;-71
2022/08/29 10:24:52;;;;;;;8.13;2.93;;;;;;;-145.18;100.00;47033.50;5030125;28;20037;-71
2022/08/29 10:27:39;;;;;;;7.10;3.00;;;;;;;-145.18;100.00;47055.00;5030780;28;20112;-72
2022/08/29 10:30:10;;;;;;;6.67;2.40;;;;;;;-145.18;100.00;47056.94;5035806;28;20032;-72
2022/08/29 10:32:59;;;;;;;6.80;2.70;;;;;;;-145.18;100.00;47094.06;5044241;28;20053;-72
2022/08/29 10:35:54;;;;;;;7.23;3.07;;;;;;;-145.18;100.00;47105.78;5044475;28;20079;-71
2022/08/29 10:38:31;;;;;;;5.33;2.73;;;;;;;-145.18;100.00;47113.59;5010514;28;20478;-71
2022/08/29 10:41:06;;;;;;;9.50;3.43;;;;;;;-145.18;100.00;47103.81;5010510;28;20751;-71
2022/08/29 10:43:37;;;;;;;6.83;2.80;;;;;;;-145.18;100.00;47103.81;5010588;28;20030;-71
2022/08/29 10:46:03;;;;;;;7.90;2.73;;;;;;;-145.18;100.00;47109.69;5010239;28;20040;-71
2022/08/29 10:48:51;;;;;;;8.23;3.10;;;;;;;-145.18;100.00;47101.88;5010664;28;20034;-71
2022/08/29 10:51:35;;;;;;;7.53;2.60;;;;;;;-145.18;100.00;47092.09;4999833;28;20050;-71
2022/08/29 10:54:19;;;;;;;6.83;2.83;;;;;;;-145.18;100.00;47086.25;5010008;28;20065;-71
2022/08/29 10:56:48;;;;;;;5.03;2.70;;;;;;;-145.18;100.00;47074.53;5029902;28;20041;-71
2022/08/29 10:59:41;;;;;;;15.00;3.13;;;;;;;-145.18;100.00;47041.31;5017523;28;20037;-71
2022/08/29 11:02:21;;;;;;;6.23;2.83;;;;;;;-145.18;100.00;47035.44;5049398;28;20493;-71
2022/08/29 11:04:52;;;;;;;7.90;2.87;;;;;;;-145.18;100.00;47043.28;5049495;28;20041;-71
2022/08/29 11:07:29;;;;;;;8.57;2.97;;;;;;;-145.18;100.00;47051.09;5040854;28;20104;-71
2022/08/29 11:09:59;;;;;;;9.67;3.17;;;;;;;-145.18;100.00;47060.84;5009228;28;20429;-71
2022/08/29 11:12:45;;;;;;;8.93;3.70;;;;;;;-145.18;100.00;47035.44;5010712;28;20228;-71
2022/08/29 11:15:30;;;;;;;7.43;3.33;;;;;;;-145.18;100.00;47049.13;5014282;28;20489;-71
2022/08/29 11:18:21;;;;;;;6.97;3.13;;;;;;;-145.18;100.00;47041.31;5029867;28;20108;-71
2022/08/29 11:20:52;;;;;;;8.80;3.77;;;;;;;-145.18;100.00;47035.44;5029783;28;20026;-71
2022/08/29 11:23:27;;;;;;;10.93;3.10;;;;;;;-145.18;100.00;46982.72;5030014;28;20535;-72